createdAt,value
2023-05-10T05:01:09.491Z,100581.03
2023-05-10T05:04:12.576Z,100581.03
2023-05-10T05:07:15.190Z,100566.63
2023-05-10T05:10:18.021Z,100566.00
2023-05-10T05:13:20.731Z,100572.87
2023-05-10T05:16:23.481Z,100567.28
2023-05-10T05:19:25.887Z,100590.56
2023-05-10T05:22:29.120Z,100576.00
2023-05-10T05:25:31.500Z,100588.47
2023-05-10T05:28:38.112Z,100584.09
2023-05-10T05:31:43.265Z,100585.13
2023-05-10T05:34:46.782Z,100590.34
2023-05-10T05:37:49.294Z,100597.78
2023-05-10T05:40:52.001Z,100582.97
2023-05-10T05:43:54.560Z,100601.12
2023-05-10T05:46:57.478Z,100604.56
2023-05-10T05:49:59.927Z,100594.56
2023-05-10T05:53:03.426Z,100601.78
2023-05-10T05:56:06.033Z,100607.91
2023-05-10T05:59:09.184Z,100607.75
2023-05-10T06:02:11.970Z,100609.31
2023-05-10T06:05:15.423Z,100619.97
2023-05-10T06:08:18.042Z,100612.59
2023-05-10T06:11:22.091Z,100622.31
2023-05-10T06:14:24.668Z,100622.41
2023-05-10T06:17:27.639Z,100595.41
2023-05-10T06:20:32.561Z,100609.97
2023-05-10T06:23:35.473Z,100616.59
2023-05-10T06:26:37.934Z,100616.09
2023-05-10T06:29:40.635Z,100606.84
2023-05-10T06:32:45.183Z,100613.75
2023-05-10T06:35:48.216Z,100618.31
2023-05-10T06:38:51.935Z,100625.62
2023-05-10T06:41:55.516Z,100625.66
2023-05-10T06:44:58.104Z,100623.25
2023-05-10T06:48:02.115Z,100623.56
2023-05-10T06:51:05.659Z,100620.09
2023-05-10T06:54:08.397Z,100628.13
2023-05-10T06:57:23.364Z,100624.63
2023-05-10T07:00:33.980Z,100622.56
2023-05-10T07:03:36.633Z,100614.22
2023-05-10T07:06:39.466Z,100615.44
2023-05-10T07:09:42.041Z,100602.38
2023-05-10T07:12:44.894Z,100612.88
2023-05-10T07:15:47.501Z,100617.78
2023-05-10T07:18:51.667Z,100613.84
2023-05-10T07:21:54.072Z,100615.09
2023-05-10T07:24:57.092Z,100618.41
2023-05-10T07:27:59.521Z,100615.06
2023-05-10T07:31:02.685Z,100606.13
2023-05-10T07:34:06.954Z,100611.84
2023-05-10T07:37:09.755Z,100613.53
2023-05-10T07:40:12.504Z,100603.13
2023-05-10T07:43:15.580Z,100601.97
2023-05-10T07:46:18.356Z,100599.75
2023-05-10T07:49:21.385Z,100596.69
2023-05-10T07:52:23.974Z,100597.53
2023-05-10T07:55:27.693Z,100602.44
2023-05-10T07:58:30.402Z,100599.59
2023-05-10T08:01:34.232Z,100602.19
2023-05-10T08:04:37.093Z,100599.91
2023-05-10T08:07:40.664Z,100601.94
2023-05-10T08:10:43.742Z,100599.44
2023-05-10T08:13:46.636Z,100597.09
2023-05-10T08:16:49.461Z,100599.31
2023-05-10T08:19:52.908Z,100601.62
2023-05-10T08:22:56.225Z,100597.03
2023-05-10T08:25:58.935Z,100603.28
2023-05-10T08:29:01.686Z,100608.69
2023-05-10T08:32:09.880Z,100604.47
2023-05-10T08:35:12.570Z,100600.91
2023-05-10T08:38:15.177Z,100603.25
2023-05-10T08:41:21.949Z,100597.94
2023-05-10T08:44:24.673Z,100592.59
2023-05-10T08:47:27.718Z,100594.47
2023-05-10T08:50:32.337Z,100573.78
2023-05-10T08:53:37.659Z,100595.69
2023-05-10T08:56:40.288Z,100576.97
2023-05-10T08:59:43.980Z,100600.91
2023-05-10T09:02:50.541Z,100594.72
2023-05-10T09:05:54.511Z,100589.75
2023-05-10T09:08:58.104Z,100595.88
2023-05-10T09:12:00.868Z,100584.56
2023-05-10T09:15:05.082Z,100600.06
2023-05-10T09:18:08.138Z,100592.41
2023-05-10T09:21:11.952Z,100589.03
2023-05-10T09:24:14.654Z,100601.88
2023-05-10T09:27:17.110Z,100578.94
2023-05-10T09:30:32.576Z,100590.34
2023-05-10T09:33:46.121Z,100575.09
2023-05-10T09:37:05.250Z,100578.06
2023-05-10T09:40:08.661Z,100577.31
2023-05-10T09:43:11.876Z,100581.66
2023-05-10T09:46:14.777Z,100569.19
2023-05-10T09:49:17.568Z,100575.87
2023-05-10T09:52:19.965Z,100581.69
2023-05-10T09:55:24.637Z,100584.12
2023-05-10T09:58:27.280Z,100570.31
2023-05-10T10:01:31.433Z,100576.59
2023-05-10T10:04:40.665Z,100567.41
2023-05-10T10:07:43.353Z,100570.75
2023-05-10T10:10:47.216Z,100563.97
2023-05-10T10:13:50.362Z,100565.47
2023-05-10T10:17:06.435Z,100561.81
2023-05-10T10:20:12.270Z,100555.03
2023-05-10T10:23:16.681Z,100554.25
2023-05-10T10:26:22.060Z,100555.63
2023-05-10T10:29:40.755Z,100543.41
2023-05-10T10:33:29.262Z,100536.09
2023-05-10T10:36:34.253Z,100554.72
2023-05-10T10:39:37.990Z,100543.41
2023-05-10T10:42:50.884Z,100533.91
2023-05-10T10:46:17.129Z,100541.44
2023-05-10T10:49:20.284Z,100533.09
2023-05-10T10:52:34.373Z,100519.34
2023-05-10T10:55:49.444Z,100530.66
2023-05-10T10:58:54.663Z,100508.47
2023-05-10T11:01:58.071Z,100516.31
2023-05-10T11:05:02.213Z,100509.44
2023-05-10T11:08:20.236Z,100505.97
2023-05-10T11:11:24.072Z,100503.25
2023-05-10T11:14:28.304Z,100498.91
2023-05-10T11:17:31.909Z,100500.75
2023-05-10T11:20:41.573Z,100498.37
2023-05-10T11:23:53.677Z,100496.09
2023-05-10T11:26:57.549Z,100495.13
2023-05-10T11:30:00.453Z,100496.75
2023-05-10T11:33:06.018Z,100487.47
2023-05-10T11:36:13.167Z,100483.84
2023-05-10T11:39:17.175Z,100472.66
2023-05-10T11:42:20.737Z,100486.34
2023-05-10T11:45:25.813Z,100474.91
2023-05-10T11:48:30.451Z,100477.91
2023-05-10T11:51:37.745Z,100479.69
2023-05-10T11:54:52.570Z,100471.69
2023-05-10T11:57:56.430Z,100470.50
2023-05-10T12:01:01.114Z,100482.13
2023-05-10T12:04:05.711Z,100468.50
2023-05-10T12:07:11.450Z,100477.94
2023-05-10T12:13:44.930Z,100466.56
2023-05-10T12:16:50.109Z,100470.16
2023-05-10T12:19:53.734Z,100472.09
2023-05-10T12:23:00.726Z,100476.34
2023-05-10T12:26:05.341Z,100474.34
2023-05-10T12:29:19.298Z,100458.41
2023-05-10T12:32:21.843Z,100459.44
2023-05-10T12:35:25.216Z,100463.63
2023-05-10T12:38:36.568Z,100466.28
2023-05-10T12:41:41.479Z,100453.66
2023-05-10T12:44:46.284Z,100456.09
2023-05-10T12:47:49.753Z,100431.03
2023-05-10T12:50:53.217Z,100443.47
2023-05-10T12:53:56.824Z,100439.88
2023-05-10T12:56:59.723Z,100450.31
2023-05-10T13:00:04.871Z,100439.97
2023-05-10T13:03:08.326Z,100439.06
2023-05-10T13:06:15.122Z,100441.47
2023-05-10T13:09:17.799Z,100424.72
2023-05-10T13:12:20.542Z,100427.06
2023-05-10T13:15:23.767Z,100413.56
2023-05-10T13:18:27.670Z,100425.38
2023-05-10T13:21:30.535Z,100417.66
2023-05-10T13:24:33.634Z,100396.56
2023-05-10T13:27:36.391Z,100407.25
2023-05-10T13:30:39.185Z,100397.56
2023-05-10T13:33:41.604Z,100400.34
2023-05-10T13:36:44.536Z,100396.47
2023-05-10T13:39:47.359Z,100394.25
2023-05-10T13:42:51.326Z,100389.00
2023-05-10T13:45:54.091Z,100391.00
2023-05-10T13:48:58.076Z,100379.87
2023-05-10T13:52:01.991Z,100371.78
2023-05-10T13:55:05.360Z,100369.94
2023-05-10T13:58:07.863Z,100381.38
2023-05-10T14:01:10.640Z,100367.41
2023-05-10T14:04:14.024Z,100358.47
2023-05-10T14:07:16.618Z,100358.97
2023-05-10T14:10:19.331Z,100364.59
2023-05-10T14:13:22.164Z,100361.22
2023-05-10T14:16:25.000Z,100360.59
2023-05-10T14:19:28.272Z,100362.44
2023-05-10T14:22:31.592Z,100362.69
2023-05-10T14:25:34.294Z,100347.16
2023-05-10T14:28:37.408Z,100354.69
2023-05-10T14:31:40.157Z,100342.09
2023-05-10T14:34:43.303Z,100331.84
2023-05-10T14:37:46.026Z,100348.56
2023-05-10T14:40:48.778Z,100343.09
2023-05-10T14:43:51.399Z,100344.41
2023-05-10T14:46:54.189Z,100345.22
2023-05-10T14:49:56.773Z,100340.19
2023-05-10T14:53:00.189Z,100339.47
2023-05-10T14:56:02.750Z,100345.00
2023-05-10T14:59:05.633Z,100350.69
2023-05-10T15:02:09.406Z,100346.66
2023-05-10T15:05:12.864Z,100345.72
2023-05-10T15:08:15.902Z,100352.28
2023-05-10T15:11:18.785Z,100346.69
2023-05-10T15:14:21.519Z,100351.59
2023-05-10T15:17:24.682Z,100352.91
2023-05-10T15:20:27.283Z,100350.94
2023-05-10T15:23:31.043Z,100340.56
2023-05-10T15:26:33.775Z,100350.38
2023-05-10T15:29:36.880Z,100337.09
2023-05-10T15:32:41.095Z,100348.09
2023-05-10T15:35:43.810Z,100339.41
2023-05-10T15:38:46.531Z,100341.97
2023-05-10T16:34:34.673Z,100334.34
2023-05-10T16:37:37.611Z,100334.34
2023-05-10T16:40:40.068Z,100333.62
2023-05-10T16:43:42.741Z,100353.09
2023-05-10T16:46:45.819Z,100354.94
2023-05-10T16:49:48.638Z,100348.09
2023-05-10T16:52:51.267Z,100352.63
2023-05-10T16:55:54.113Z,100349.37
2023-05-10T16:58:57.736Z,100354.19
2023-05-10T17:02:04.198Z,100359.00
2023-05-10T17:05:07.147Z,100366.63
2023-05-10T17:08:10.468Z,100365.56
2023-05-10T17:11:12.970Z,100366.13
2023-05-10T17:14:15.773Z,100364.69
2023-05-10T17:17:18.891Z,100359.25
2023-05-10T17:20:22.309Z,100377.66
2023-05-10T17:23:24.887Z,100376.19
2023-05-10T17:26:27.863Z,100381.66
2023-05-10T17:29:32.190Z,100380.59
2023-05-10T17:32:35.100Z,100372.34
2023-05-10T17:35:37.776Z,100376.72
2023-05-10T17:38:40.632Z,100382.84
2023-05-10T17:41:43.080Z,100385.56
2023-05-10T17:44:46.130Z,100384.00
2023-05-10T17:47:48.610Z,100390.81
2023-05-10T17:50:51.652Z,100386.88
2023-05-10T17:53:54.792Z,100386.53
2023-05-10T17:56:58.233Z,100386.94
2023-05-10T18:00:02.278Z,100389.75
2023-05-10T18:03:07.491Z,100390.34
2023-05-10T18:06:10.544Z,100398.00
2023-05-10T18:09:13.232Z,100405.66
2023-05-10T18:12:16.258Z,100395.75
2023-05-10T18:15:19.042Z,100402.03
2023-05-10T18:18:22.237Z,100397.63
2023-05-10T18:21:25.017Z,100406.84
2023-05-10T18:24:38.383Z,100409.69
2023-05-10T18:27:42.396Z,100406.97
2023-05-10T18:30:46.621Z,100413.16
2023-05-10T18:33:49.199Z,100424.25
2023-05-10T18:36:52.483Z,100417.81
